createdAt,value
2022-07-25T00:02:14.651Z,20.48
2022-07-25T00:07:17.665Z,20.38
2022-07-25T00:12:20.398Z,20.38
2022-07-25T00:17:22.066Z,20.37
2022-07-25T00:22:23.863Z,20.22
2022-07-25T00:27:25.819Z,20.15
2022-07-25T00:32:27.669Z,20.12
2022-07-25T00:37:29.442Z,20.06
2022-07-25T00:42:32.329Z,20.04
2022-07-25T00:47:34.062Z,20.03
2022-07-25T00:52:36.503Z,20.08
2022-07-25T00:57:38.246Z,20.10
2022-07-25T01:02:41.319Z,20.01
2022-07-25T01:07:43.284Z,20.12
2022-07-25T01:12:49.073Z,20.25
2022-07-25T01:17:51.984Z,20.35
2022-07-25T01:22:54.664Z,20.23
2022-07-25T01:27:57.701Z,20.13
2022-07-25T01:32:59.425Z,20.17
2022-07-25T01:38:08.241Z,20.18
2022-07-25T01:43:10.666Z,20.05
2022-07-25T01:48:12.379Z,19.92
2022-07-25T01:53:14.039Z,19.98
2022-07-25T01:58:15.826Z,19.98
2022-07-25T02:03:30.598Z,19.90
2022-07-25T02:08:32.715Z,19.89
2022-07-25T02:13:34.661Z,19.87
2022-07-25T02:18:36.790Z,19.81
2022-07-25T02:23:40.663Z,19.57
2022-07-25T02:28:42.402Z,19.52
2022-07-25T02:33:44.959Z,19.37
2022-07-25T02:38:46.698Z,19.33
2022-07-25T02:43:48.516Z,19.34
2022-07-25T02:48:50.353Z,19.32
2022-07-25T02:53:57.722Z,18.97
2022-07-25T02:59:00.664Z,18.64
2022-07-25T03:04:02.627Z,18.73
2022-07-25T03:09:04.719Z,18.85
2022-07-25T03:14:08.420Z,18.94
2022-07-25T03:19:12.727Z,18.84
2022-07-25T03:24:14.863Z,18.83
2022-07-25T03:29:16.619Z,18.94
2022-07-25T03:34:18.940Z,18.76
2022-07-25T03:39:21.036Z,18.65
2022-07-25T03:44:24.304Z,18.61
2022-07-25T03:49:25.974Z,18.37
2022-07-25T03:54:27.824Z,18.22
2022-07-25T03:59:29.920Z,18.14
2022-07-25T04:04:31.851Z,18.22
2022-07-25T04:09:33.889Z,18.47
2022-07-25T04:14:36.725Z,18.52
2022-07-25T04:19:38.467Z,18.63
2022-07-25T04:24:40.338Z,18.81
2022-07-25T04:29:42.388Z,18.67
2022-07-25T04:34:44.740Z,18.54
2022-07-25T04:39:46.506Z,18.57
2022-07-25T04:44:48.210Z,18.77
2022-07-25T04:49:49.975Z,18.79
2022-07-25T04:54:51.838Z,18.89
2022-07-25T04:59:53.719Z,19.06
2022-07-25T05:04:55.449Z,19.19
2022-07-25T05:09:57.399Z,19.32
2022-07-25T05:14:59.088Z,19.43
2022-07-25T05:20:00.913Z,19.59
2022-07-25T05:25:05.967Z,19.80
2022-07-25T05:30:09.549Z,20.05
2022-07-25T05:35:11.408Z,20.24
2022-07-25T05:40:13.264Z,20.55
2022-07-25T05:45:15.438Z,20.86
2022-07-25T05:50:17.398Z,21.19
2022-07-25T05:55:19.338Z,21.50
2022-07-25T06:00:21.213Z,21.81
2022-07-25T06:05:23.137Z,22.07
2022-07-25T06:10:25.184Z,22.33
2022-07-25T06:15:27.662Z,22.59
2022-07-25T06:20:29.507Z,22.81
2022-07-25T06:25:31.246Z,22.99
2022-07-25T06:30:33.494Z,23.15
2022-07-25T06:35:35.699Z,23.29
2022-07-25T06:40:37.629Z,23.50
2022-07-25T06:45:39.298Z,23.67
2022-07-25T06:50:41.064Z,23.82
2022-07-25T06:55:42.967Z,23.95
2022-07-25T07:00:44.803Z,24.09
2022-07-25T07:05:46.664Z,24.19
2022-07-25T07:10:48.502Z,24.42
2022-07-25T07:15:51.063Z,24.61
2022-07-25T07:20:53.590Z,24.72
2022-07-25T07:25:55.331Z,24.92
2022-07-25T07:36:19.006Z,25.09
2022-07-25T07:41:21.578Z,25.23
2022-07-25T07:46:23.314Z,25.32
2022-07-25T07:51:25.099Z,25.47
2022-07-25T07:56:28.136Z,25.69
2022-07-25T08:01:30.359Z,25.77
2022-07-25T08:06:32.104Z,25.89
2022-07-25T08:11:33.862Z,26.03
2022-07-25T08:16:35.725Z,26.19
2022-07-25T08:21:37.573Z,26.38
2022-07-25T08:26:39.442Z,26.54
2022-07-25T08:31:41.246Z,26.76
2022-07-25T08:36:43.242Z,26.98
2022-07-25T08:41:45.799Z,27.22
2022-07-25T08:46:48.224Z,27.44
2022-07-25T08:51:51.061Z,27.73
2022-07-25T08:56:54.413Z,27.91
2022-07-25T09:01:56.970Z,28.12
2022-07-25T09:06:58.825Z,28.37
2022-07-25T09:12:01.484Z,28.62
2022-07-25T09:17:06.716Z,28.69
2022-07-25T09:22:24.687Z,28.87
2022-07-25T09:27:26.482Z,29.13
2022-07-25T09:32:29.197Z,29.37
2022-07-25T09:37:30.984Z,29.53
2022-07-25T09:42:32.839Z,29.63
2022-07-25T09:47:38.067Z,29.77
2022-07-25T09:52:40.349Z,29.90
2022-07-25T09:57:42.683Z,30.20
2022-07-25T10:02:53.066Z,30.41
2022-07-25T10:07:55.653Z,30.49
2022-07-25T10:13:11.326Z,30.63
2022-07-25T10:18:14.832Z,30.94
2022-07-25T10:23:25.846Z,31.16
2022-07-25T10:28:48.573Z,31.32
2022-07-25T10:33:53.294Z,31.37
2022-07-25T10:38:58.191Z,31.58
2022-07-25T10:44:02.019Z,31.71
2022-07-25T10:49:06.339Z,31.93
2022-07-25T10:54:17.933Z,32.17
2022-07-25T10:59:30.957Z,32.20
2022-07-25T11:04:37.696Z,32.29
2022-07-25T11:09:41.371Z,32.53
2022-07-25T11:14:43.484Z,32.74
2022-07-25T11:19:58.102Z,32.79
2022-07-25T11:25:01.012Z,32.95
2022-07-25T11:30:17.446Z,33.03
2022-07-25T11:35:25.990Z,33.22
2022-07-25T11:40:28.483Z,33.40
2022-07-25T11:45:33.610Z,33.55
2022-07-25T11:50:41.843Z,33.77
2022-07-25T11:55:43.995Z,33.81
2022-07-25T12:00:48.675Z,33.91
2022-07-25T12:05:50.611Z,33.97
2022-07-25T12:10:52.317Z,34.01
2022-07-25T12:15:56.292Z,34.14
2022-07-25T12:20:57.977Z,34.39
2022-07-25T12:26:00.069Z,34.44
2022-07-25T12:31:01.915Z,34.58
2022-07-25T12:36:08.422Z,34.57
2022-07-25T12:41:14.586Z,34.57
2022-07-25T12:46:19.524Z,34.91
2022-07-25T12:51:21.221Z,35.04
2022-07-25T12:56:23.067Z,35.02
2022-07-25T13:01:24.959Z,34.97
2022-07-25T13:06:26.925Z,35.16
2022-07-25T13:11:28.769Z,35.19
2022-07-25T13:16:30.762Z,35.33
2022-07-25T13:21:32.538Z,35.34
2022-07-25T13:26:34.911Z,35.28
2022-07-25T13:31:41.037Z,35.30
2022-07-25T13:36:43.118Z,35.29
2022-07-25T13:41:44.963Z,35.36
2022-07-25T13:46:50.006Z,35.41
2022-07-25T13:51:51.807Z,35.42
2022-07-25T13:56:53.663Z,35.54
2022-07-25T14:01:55.526Z,35.56
2022-07-25T14:06:57.407Z,35.60
2022-07-25T14:11:59.118Z,35.73
2022-07-25T14:17:00.949Z,35.92
2022-07-25T14:22:02.714Z,36.03
2022-07-25T14:27:04.820Z,35.89
2022-07-25T14:32:08.176Z,36.03
2022-07-25T14:37:10.231Z,36.16
2022-07-25T14:42:11.962Z,36.04
2022-07-25T14:47:13.798Z,36.13
2022-07-25T14:52:16.395Z,36.23
2022-07-25T14:57:18.647Z,36.21
2022-07-25T15:02:20.680Z,35.98
2022-07-25T15:07:22.392Z,35.97
2022-07-25T15:12:24.138Z,36.19
2022-07-25T15:17:25.946Z,36.49
2022-07-25T15:22:27.700Z,36.64
2022-07-25T15:27:29.614Z,36.54
2022-07-25T15:32:31.363Z,36.42
2022-07-25T15:37:33.028Z,36.23
2022-07-25T15:42:34.921Z,36.26
2022-07-25T15:47:38.423Z,35.72
2022-07-25T15:52:40.143Z,35.02
2022-07-25T15:57:41.959Z,34.89
2022-07-25T16:02:45.949Z,35.57
2022-07-25T16:07:48.284Z,35.70
2022-07-25T16:12:50.080Z,35.55
2022-07-25T16:17:53.495Z,35.38
2022-07-25T16:22:57.564Z,34.56
2022-07-25T16:27:59.814Z,34.20
2022-07-25T16:33:01.731Z,34.10
2022-07-25T16:38:03.552Z,33.76
2022-07-25T16:43:05.326Z,33.44
2022-07-25T16:48:07.362Z,33.28
2022-07-25T16:53:09.282Z,32.45
2022-07-25T16:58:11.158Z,28.79
2022-07-25T17:03:12.872Z,26.91
2022-07-25T17:08:14.555Z,26.14
2022-07-25T17:13:16.795Z,25.15
2022-07-25T17:18:18.527Z,24.77
2022-07-25T17:23:21.394Z,24.47
2022-07-25T17:28:23.251Z,24.56
2022-07-25T17:33:24.963Z,24.72
2022-07-25T17:38:30.324Z,25.01
2022-07-25T17:43:36.174Z,25.23
2022-07-25T17:48:37.931Z,25.41
2022-07-25T17:53:39.753Z,25.61
2022-07-25T17:58:41.511Z,25.91
2022-07-25T18:03:47.375Z,26.14
2022-07-25T18:08:49.046Z,26.02
2022-07-25T18:13:50.746Z,26.20
2022-07-25T18:18:52.514Z,26.04
2022-07-25T18:23:54.219Z,26.17
2022-07-25T18:28:55.962Z,25.98
2022-07-25T18:33:57.663Z,25.82
2022-07-25T18:38:59.509Z,25.95
2022-07-25T18:44:01.778Z,25.89
2022-07-25T18:49:03.573Z,25.42
2022-07-25T18:54:05.915Z,25.43
2022-07-25T18:59:08.194Z,25.17
2022-07-25T19:04:11.496Z,25.21
2022-07-25T19:09:13.297Z,25.00
2022-07-25T19:14:15.196Z,24.85
2022-07-25T19:19:17.204Z,24.63
2022-07-25T19:24:19.076Z,24.35
2022-07-25T19:29:20.950Z,24.11
2022-07-25T19:34:23.662Z,24.17
2022-07-25T19:39:25.517Z,24.40
2022-07-25T19:44:27.336Z,24.53
2022-07-25T19:49:29.142Z,24.49
2022-07-25T19:54:30.986Z,24.55
2022-07-25T19:59:34.703Z,24.58
2022-07-25T20:04:36.899Z,24.58
2022-07-25T20:09:39.729Z,24.54
2022-07-25T20:14:41.531Z,24.54
2022-07-25T20:19:43.678Z,24.48
2022-07-25T20:24:45.859Z,24.11
2022-07-25T20:29:47.800Z,23.78
2022-07-25T20:34:49.555Z,23.38
2022-07-25T20:39:51.694Z,23.35
2022-07-25T20:44:53.725Z,23.26
2022-07-25T20:49:55.472Z,23.10
2022-07-25T20:54:57.627Z,23.32
2022-07-25T21:00:00.413Z,23.57
2022-07-25T21:05:02.807Z,23.73
2022-07-25T21:10:05.053Z,23.72
2022-07-25T21:15:08.186Z,23.54
2022-07-25T21:20:12.825Z,23.73
2022-07-25T21:25:15.358Z,23.71
2022-07-25T21:30:17.371Z,23.57
2022-07-25T21:35:19.250Z,23.73
2022-07-25T21:40:20.978Z,23.70
2022-07-25T21:45:23.086Z,23.85
2022-07-25T21:50:42.235Z,23.93
2022-07-25T21:55:45.795Z,23.90
2022-07-25T22:00:47.709Z,23.73
2022-07-25T22:05:49.443Z,23.77
2022-07-25T22:10:51.448Z,23.81
2022-07-25T22:15:53.846Z,23.81
2022-07-25T22:20:55.749Z,23.79
2022-07-25T22:25:57.521Z,23.76
2022-07-25T22:30:59.333Z,23.79
2022-07-25T22:36:01.659Z,23.70
2022-07-25T22:41:03.373Z,23.67
2022-07-25T22:46:05.121Z,23.64
2022-07-25T22:51:06.996Z,23.61
2022-07-25T22:56:08.768Z,23.63
2022-07-25T23:01:10.941Z,23.60
2022-07-25T23:06:12.832Z,23.59
2022-07-25T23:11:14.537Z,23.57
2022-07-25T23:16:16.428Z,23.46
2022-07-25T23:21:18.166Z,23.37
2022-07-25T23:26:19.926Z,23.33
2022-07-25T23:31:21.746Z,23.34
2022-07-25T23:36:23.501Z,23.28
2022-07-25T23:41:25.173Z,23.22
2022-07-25T23:46:29.545Z,23.18
2022-07-25T23:51:33.525Z,23.10
2022-07-25T23:56:35.202Z,23.07
